sensor_id;sensor_type;location;lat;lon;timestamp;pressure;altitude;pressure_sealevel;temperature;humidity
23118;BME280;11728;50.624;6.014;2022-11-15T00:05:16;97621.72;;;12.68;95.81
23118;BME280;11728;50.624;6.014;2022-11-15T00:11:01;97618.34;;;12.64;96.34
23118;BME280;11728;50.624;6.014;2022-11-15T00:16:40;97611.97;;;12.68;96.36
23118;BME280;11728;50.624;6.014;2022-11-15T00:22:20;97593.44;;;12.68;96.23
23118;BME280;11728;50.624;6.014;2022-11-15T00:28:00;97594.34;;;12.67;96.46
23118;BME280;11728;50.624;6.014;2022-11-15T00:33:39;97596.19;;;12.65;96.39
23118;BME280;11728;50.624;6.014;2022-11-15T00:39:18;97591.97;;;12.61;96.48
23118;BME280;11728;50.624;6.014;2022-11-15T00:44:58;97579.56;;;12.62;96.45
23118;BME280;11728;50.624;6.014;2022-11-15T00:50:37;97588.50;;;12.59;96.53
23118;BME280;11728;50.624;6.014;2022-11-15T00:56:16;97594.88;;;12.55;96.68
23118;BME280;11728;50.624;6.014;2022-11-15T01:01:55;97593.69;;;12.62;96.67
23118;BME280;11728;50.624;6.014;2022-11-15T01:07:35;97583.75;;;12.67;96.28
23118;BME280;11728;50.624;6.014;2022-11-15T01:13:15;97578.53;;;12.66;95.92
23118;BME280;11728;50.624;6.014;2022-11-15T01:18:54;97570.53;;;12.67;95.86
23118;BME280;11728;50.624;6.014;2022-11-15T01:24:34;97565.09;;;12.70;95.54
23118;BME280;11728;50.624;6.014;2022-11-15T01:30:13;97555.44;;;12.69;95.58
23118;BME280;11728;50.624;6.014;2022-11-15T01:35:53;97545.41;;;12.56;95.68
23118;BME280;11728;50.624;6.014;2022-11-15T01:41:33;97545.03;;;12.45;96.53
23118;BME280;11728;50.624;6.014;2022-11-15T01:47:23;97540.84;;;12.39;97.09
23118;BME280;11728;50.624;6.014;2022-11-15T01:53:03;97551.41;;;12.39;97.20
23118;BME280;11728;50.624;6.014;2022-11-15T01:58:44;97537.53;;;12.34;97.44
23118;BME280;11728;50.624;6.014;2022-11-15T02:04:28;97548.53;;;12.24;98.58
23118;BME280;11728;50.624;6.014;2022-11-15T02:10:13;97541.47;;;12.25;99.19
23118;BME280;11728;50.624;6.014;2022-11-15T02:45:29;97529.44;;;12.37;100.00
23118;BME280;11728;50.624;6.014;2022-11-15T02:51:09;97528.59;;;12.37;100.00
23118;BME280;11728;50.624;6.014;2022-11-15T02:56:50;97524.22;;;12.36;100.00
23118;BME280;11728;50.624;6.014;2022-11-15T03:14:54;97518.59;;;12.43;100.00
23118;BME280;11728;50.624;6.014;2022-11-15T03:20:36;97508.88;;;12.44;100.00
23118;BME280;11728;50.624;6.014;2022-11-15T03:26:17;97507.94;;;12.45;100.00
23118;BME280;11728;50.624;6.014;2022-11-15T03:32:09;97501.13;;;12.39;100.00
23118;BME280;11728;50.624;6.014;2022-11-15T03:37:57;97494.28;;;12.34;100.00
23118;BME280;11728;50.624;6.014;2022-11-15T03:43:47;97501.88;;;12.22;100.00
23118;BME280;11728;50.624;6.014;2022-11-15T03:49:32;97488.72;;;12.20;100.00
23118;BME280;11728;50.624;6.014;2022-11-15T03:55:16;97484.81;;;12.28;100.00
23118;BME280;11728;50.624;6.014;2022-11-15T04:00:56;97489.06;;;12.32;100.00
23118;BME280;11728;50.624;6.014;2022-11-15T04:06:35;97504.81;;;12.35;100.00
23118;BME280;11728;50.624;6.014;2022-11-15T04:12:15;97506.53;;;12.36;100.00
23118;BME280;11728;50.624;6.014;2022-11-15T04:18:09;97499.50;;;12.35;100.00
23118;BME280;11728;50.624;6.014;2022-11-15T04:23:48;97496.81;;;12.37;100.00
23118;BME280;11728;50.624;6.014;2022-11-15T04:29:46;97501.22;;;12.36;100.00
23118;BME280;11728;50.624;6.014;2022-11-15T04:35:26;97487.47;;;12.28;100.00
23118;BME280;11728;50.624;6.014;2022-11-15T04:41:06;97481.59;;;12.22;100.00
23118;BME280;11728;50.624;6.014;2022-11-15T04:46:45;97491.56;;;12.16;100.00
23118;BME280;11728;50.624;6.014;2022-11-15T04:52:24;97501.50;;;12.09;100.00
23118;BME280;11728;50.624;6.014;2022-11-15T04:58:04;97513.91;;;12.09;100.00
23118;BME280;11728;50.624;6.014;2022-11-15T05:03:43;97508.94;;;12.01;99.98
23118;BME280;11728;50.624;6.014;2022-11-15T05:09:42;97507.25;;;11.99;99.67
23118;BME280;11728;50.624;6.014;2022-11-15T05:15:21;97515.06;;;12.02;99.16
23118;BME280;11728;50.624;6.014;2022-11-15T05:21:05;97519.44;;;12.03;98.87
23118;BME280;11728;50.624;6.014;2022-11-15T05:26:45;97518.53;;;12.04;98.37
23118;BME280;11728;50.624;6.014;2022-11-15T05:32:24;97518.72;;;11.99;98.49
23118;BME280;11728;50.624;6.014;2022-11-15T05:38:04;97527.50;;;12.00;98.28
23118;BME280;11728;50.624;6.014;2022-11-15T05:43:43;97515.59;;;11.90;98.57
23118;BME280;11728;50.624;6.014;2022-11-15T05:49:26;97528.25;;;11.82;99.50
23118;BME280;11728;50.624;6.014;2022-11-15T05:55:09;97526.53;;;11.81;99.94
23118;BME280;11728;50.624;6.014;2022-11-15T06:00:48;97533.66;;;11.79;99.97
23118;BME280;11728;50.624;6.014;2022-11-15T06:06:28;97534.16;;;11.67;100.00
23118;BME280;11728;50.624;6.014;2022-11-15T06:12:07;97536.81;;;11.65;100.00
23118;BME280;11728;50.624;6.014;2022-11-15T06:17:47;97541.28;;;11.65;100.00
23118;BME280;11728;50.624;6.014;2022-11-15T06:23:27;97542.09;;;11.67;100.00
23118;BME280;11728;50.624;6.014;2022-11-15T06:29:06;97538.63;;;11.65;100.00
23118;BME280;11728;50.624;6.014;2022-11-15T06:34:45;97548.28;;;11.43;100.00
23118;BME280;11728;50.624;6.014;2022-11-15T06:40:25;97543.84;;;11.21;100.00
23118;BME280;11728;50.624;6.014;2022-11-15T06:46:05;97555.75;;;11.09;100.00
23118;BME280;11728;50.624;6.014;2022-11-15T06:51:45;97567.00;;;11.14;99.86
23118;BME280;11728;50.624;6.014;2022-11-15T06:57:25;97571.22;;;11.18;98.69
23118;BME280;11728;50.624;6.014;2022-11-15T07:03:04;97573.19;;;11.13;97.03
23118;BME280;11728;50.624;6.014;2022-11-15T07:08:43;97574.44;;;11.03;96.09
23118;BME280;11728;50.624;6.014;2022-11-15T07:14:22;97576.72;;;10.89;95.40
23118;BME280;11728;50.624;6.014;2022-11-15T07:20:02;97577.84;;;10.82;94.93
23118;BME280;11728;50.624;6.014;2022-11-15T07:25:42;97588.31;;;10.85;93.48
23118;BME280;11728;50.624;6.014;2022-11-15T07:31:22;97583.03;;;10.85;92.21
23118;BME280;11728;50.624;6.014;2022-11-15T07:37:01;97575.34;;;11.02;91.43
23118;BME280;11728;50.624;6.014;2022-11-15T07:42:41;97577.69;;;11.34;89.60
23118;BME280;11728;50.624;6.014;2022-11-15T07:48:32;97566.22;;;11.58;88.36
23118;BME280;11728;50.624;6.014;2022-11-15T07:54:11;97566.03;;;12.28;85.95
23118;BME280;11728;50.624;6.014;2022-11-15T07:59:51;97554.78;;;13.04;81.54
23118;BME280;11728;50.624;6.014;2022-11-15T08:05:30;97558.66;;;13.72;78.66
23118;BME280;11728;50.624;6.014;2022-11-15T08:11:10;97543.56;;;14.63;74.97
23118;BME280;11728;50.624;6.014;2022-11-15T08:16:49;97537.38;;;14.79;72.42
23118;BME280;11728;50.624;6.014;2022-11-15T08:22:29;97546.19;;;14.46;71.98
23118;BME280;11728;50.624;6.014;2022-11-15T08:28:10;97545.19;;;14.82;70.50
23118;BME280;11728;50.624;6.014;2022-11-15T08:33:49;97533.78;;;15.46;65.57
23118;BME280;11728;50.624;6.014;2022-11-15T08:39:28;97508.41;;;16.18;64.46
23118;BME280;11728;50.624;6.014;2022-11-15T08:45:08;97513.13;;;16.44;61.96
23118;BME280;11728;50.624;6.014;2022-11-15T08:50:48;97514.53;;;16.65;60.51
23118;BME280;11728;50.624;6.014;2022-11-15T08:56:28;97507.84;;;17.72;57.75
23118;BME280;11728;50.624;6.014;2022-11-15T09:02:11;97491.38;;;18.58;53.77
23118;BME280;11728;50.624;6.014;2022-11-15T09:07:54;97468.47;;;18.02;52.50
23118;BME280;11728;50.624;6.014;2022-11-15T09:13:34;97463.66;;;19.23;49.88
23118;BME280;11728;50.624;6.014;2022-11-15T09:19:16;97465.63;;;19.94;47.57
23118;BME280;11728;50.624;6.014;2022-11-15T09:24:55;97459.16;;;20.79;46.28
23118;BME280;11728;50.624;6.014;2022-11-15T09:30:34;97459.91;;;20.92;44.41
23118;BME280;11728;50.624;6.014;2022-11-15T09:36:14;97446.06;;;20.28;44.17
23118;BME280;11728;50.624;6.014;2022-11-15T09:53:49;97443.16;;;18.34;45.01
23118;BME280;11728;50.624;6.014;2022-11-15T09:59:47;97445.47;;;18.26;45.46
23118;BME280;11728;50.624;6.014;2022-11-15T10:05:14;97447.06;;;18.42;45.17
23118;BME280;11728;50.624;6.014;2022-11-15T10:10:43;97439.63;;;19.46;44.28
23118;BME280;11728;50.624;6.014;2022-11-15T10:16:36;97428.00;;;20.42;41.81
23118;BME280;11728;50.624;6.014;2022-11-15T10:22:24;97425.28;;;21.00;40.65
23118;BME280;11728;50.624;6.014;2022-11-15T10:27:53;97410.00;;;22.10;38.98
23118;BME280;11728;50.624;6.014;2022-11-15T10:33:29;97404.72;;;22.61;38.07
23118;BME280;11728;50.624;6.014;2022-11-15T10:38:54;97397.84;;;23.09;37.01
23118;BME280;11728;50.624;6.014;2022-11-15T10:44:24;97399.72;;;22.57;37.40
23118;BME280;11728;50.624;6.014;2022-11-15T10:49:54;97389.84;;;22.04;37.01
23118;BME280;11728;50.624;6.014;2022-11-15T11:00:36;97361.22;;;23.96;35.56
23118;BME280;11728;50.624;6.014;2022-11-15T11:06:11;97347.13;;;23.14;34.82
23118;BME280;11728;50.624;6.014;2022-11-15T11:11:50;97353.69;;;22.40;36.43
23118;BME280;11728;50.624;6.014;2022-11-15T11:23:03;97317.63;;;22.51;36.64
23118;BME280;11728;50.624;6.014;2022-11-15T11:51:12;97256.56;;;18.99;46.09
23118;BME280;11728;50.624;6.014;2022-11-15T11:56:37;97245.50;;;18.80;46.31
23118;BME280;11728;50.624;6.014;2022-11-15T12:02:11;97235.19;;;19.58;45.39
23118;BME280;11728;50.624;6.014;2022-11-15T12:07:34;97222.88;;;21.23;43.07
23118;BME280;11728;50.624;6.014;2022-11-15T12:13:09;97206.84;;;20.79;42.96
23118;BME280;11728;50.624;6.014;2022-11-15T12:18:31;97202.19;;;21.03;42.67
23118;BME280;11728;50.624;6.014;2022-11-15T12:23:58;97214.69;;;21.24;43.16
23118;BME280;11728;50.624;6.014;2022-11-15T12:29:43;97188.34;;;21.29;43.12
23118;BME280;11728;50.624;6.014;2022-11-15T12:41:13;97188.16;;;19.89;44.89
23118;BME280;11728;50.624;6.014;2022-11-15T12:57:30;97155.81;;;18.87;47.25
23118;BME280;11728;50.624;6.014;2022-11-15T13:03:21;97139.00;;;18.50;47.51
23118;BME280;11728;50.624;6.014;2022-11-15T13:08:46;97135.66;;;18.23;48.09
23118;BME280;11728;50.624;6.014;2022-11-15T13:20:07;97119.09;;;17.17;49.96
23118;BME280;11728;50.624;6.014;2022-11-15T13:26:10;97111.97;;;16.65;51.69
23118;BME280;11728;50.624;6.014;2022-11-15T13:31:42;97097.22;;;16.86;51.89
23118;BME280;11728;50.624;6.014;2022-11-15T13:37:03;97091.88;;;16.86;51.77
23118;BME280;11728;50.624;6.014;2022-11-15T13:42:28;97099.50;;;16.92;51.99
23118;BME280;11728;50.624;6.014;2022-11-15T13:47:54;97083.34;;;16.81;52.25
23118;BME280;11728;50.624;6.014;2022-11-15T13:53:16;97065.66;;;16.92;52.50
23118;BME280;11728;50.624;6.014;2022-11-15T13:58:38;97053.19;;;16.66;52.93
23118;BME280;11728;50.624;6.014;2022-11-15T14:04:00;97037.22;;;16.26;53.25
23118;BME280;11728;50.624;6.014;2022-11-15T14:09:33;97039.81;;;15.87;54.91
23118;BME280;11728;50.624;6.014;2022-11-15T14:14:55;97024.22;;;15.67;55.74
23118;BME280;11728;50.624;6.014;2022-11-15T14:25:57;97016.31;;;15.10;58.91
23118;BME280;11728;50.624;6.014;2022-11-15T14:31:19;97010.97;;;14.96;59.99
23118;BME280;11728;50.624;6.014;2022-11-15T14:36:41;96999.06;;;14.88;60.75
23118;BME280;11728;50.624;6.014;2022-11-15T14:42:01;96989.97;;;14.78;61.56
23118;BME280;11728;50.624;6.014;2022-11-15T14:47:22;96981.75;;;14.67;62.10
23118;BME280;11728;50.624;6.014;2022-11-15T14:52:44;96980.13;;;14.64;62.31
23118;BME280;11728;50.624;6.014;2022-11-15T14:58:06;96977.25;;;14.54;62.93
23118;BME280;11728;50.624;6.014;2022-11-15T15:03:30;96975.22;;;14.43;63.77
23118;BME280;11728;50.624;6.014;2022-11-15T15:08:52;96972.09;;;14.37;64.48
23118;BME280;11728;50.624;6.014;2022-11-15T15:14:13;96968.00;;;14.31;66.13
23118;BME280;11728;50.624;6.014;2022-11-15T15:19:34;96951.41;;;14.12;67.77
23118;BME280;11728;50.624;6.014;2022-11-15T15:24:55;96954.75;;;14.00;69.25
23118;BME280;11728;50.624;6.014;2022-11-15T15:30:16;96952.59;;;13.91;70.21
23118;BME280;11728;50.624;6.014;2022-11-15T15:35:37;96942.00;;;13.91;70.61
23118;BME280;11728;50.624;6.014;2022-11-15T15:40:58;96955.25;;;13.91;71.25
23118;BME280;11728;50.624;6.014;2022-11-15T15:46:22;96935.31;;;13.84;72.53
23118;BME280;11728;50.624;6.014;2022-11-15T15:51:43;96938.22;;;13.80;73.19
23118;BME280;11728;50.624;6.014;2022-11-15T15:57:05;96930.31;;;13.65;75.44
23118;BME280;11728;50.624;6.014;2022-11-15T16:02:27;96929.94;;;13.40;78.62
23118;BME280;11728;50.624;6.014;2022-11-15T16:07:48;96932.25;;;13.15;81.53
23118;BME280;11728;50.624;6.014;2022-11-15T16:13:09;96952.22;;;13.05;84.60
23118;BME280;11728;50.624;6.014;2022-11-15T16:18:29;96925.44;;;12.94;86.23
23118;BME280;11728;50.624;6.014;2022-11-15T16:23:50;96915.19;;;12.88;87.29
23118;BME280;11728;50.624;6.014;2022-11-15T16:29:11;96908.00;;;12.90;88.50
23118;BME280;11728;50.624;6.014;2022-11-15T16:34:32;96900.19;;;12.87;89.25
23118;BME280;11728;50.624;6.014;2022-11-15T16:39:53;96906.59;;;12.83;89.60
23118;BME280;11728;50.624;6.014;2022-11-15T16:45:14;96913.94;;;12.78;90.85
23118;BME280;11728;50.624;6.014;2022-11-15T16:50:34;96909.91;;;12.71;92.14
23118;BME280;11728;50.624;6.014;2022-11-15T16:56:03;96898.09;;;12.61;93.57
23118;BME280;11728;50.624;6.014;2022-11-15T17:01:26;96908.91;;;12.57;94.65
23118;BME280;11728;50.624;6.014;2022-11-15T17:06:48;96898.41;;;12.55;95.31
23118;BME280;11728;50.624;6.014;2022-11-15T17:12:09;96895.59;;;12.58;95.45
23118;BME280;11728;50.624;6.014;2022-11-15T17:17:31;96901.50;;;12.63;95.66
23118;BME280;11728;50.624;6.014;2022-11-15T17:22:52;96882.75;;;12.68;95.83
23118;BME280;11728;50.624;6.014;2022-11-15T17:28:13;96878.28;;;12.68;95.84
23118;BME280;11728;50.624;6.014;2022-11-15T17:33:34;96890.59;;;12.69;95.55
23118;BME280;11728;50.624;6.014;2022-11-15T17:38:55;96877.00;;;12.75;95.24
23118;BME280;11728;50.624;6.014;2022-11-15T17:44:16;96863.63;;;12.78;95.69
23118;BME280;11728;50.624;6.014;2022-11-15T17:49:37;96872.06;;;12.85;94.81
23118;BME280;11728;50.624;6.014;2022-11-15T17:55:00;96861.09;;;12.92;94.39
23118;BME280;11728;50.624;6.014;2022-11-15T18:00:21;96866.06;;;12.98;94.30
23118;BME280;11728;50.624;6.014;2022-11-15T18:05:41;96858.00;;;13.00;93.99
23118;BME280;11728;50.624;6.014;2022-11-15T18:16:31;96849.72;;;13.05;94.31
23118;BME280;11728;50.624;6.014;2022-11-15T18:21:53;96851.38;;;13.08;93.92
23118;BME280;11728;50.624;6.014;2022-11-15T18:27:16;96852.91;;;13.12;94.04
23118;BME280;11728;50.624;6.014;2022-11-15T18:32:37;96837.84;;;13.12;94.14
23118;BME280;11728;50.624;6.014;2022-11-15T18:37:58;96830.84;;;13.11;94.23
23118;BME280;11728;50.624;6.014;2022-11-15T18:43:19;96823.84;;;13.10;94.39
23118;BME280;11728;50.624;6.014;2022-11-15T18:48:41;96823.59;;;13.15;94.64
23118;BME280;11728;50.624;6.014;2022-11-15T18:54:03;96818.88;;;13.20;94.68
23118;BME280;11728;50.624;6.014;2022-11-15T18:59:24;96820.41;;;13.24;94.72
23118;BME280;11728;50.624;6.014;2022-11-15T19:04:47;96812.72;;;13.19;95.03
23118;BME280;11728;50.624;6.014;2022-11-15T19:10:08;96808.16;;;13.21;95.36
23118;BME280;11728;50.624;6.014;2022-11-15T19:15:30;96804.78;;;13.19;95.52
23118;BME280;11728;50.624;6.014;2022-11-15T19:20:51;96797.66;;;13.20;96.02
23118;BME280;11728;50.624;6.014;2022-11-15T19:26:14;96796.63;;;13.22;95.81
23118;BME280;11728;50.624;6.014;2022-11-15T19:31:36;96792.78;;;13.28;95.36
23118;BME280;11728;50.624;6.014;2022-11-15T19:36:57;96777.66;;;13.30;95.63
23118;BME280;11728;50.624;6.014;2022-11-15T19:42:17;96786.53;;;13.29;95.84
23118;BME280;11728;50.624;6.014;2022-11-15T19:47:38;96783.91;;;13.29;96.00
23118;BME280;11728;50.624;6.014;2022-11-15T19:52:59;96772.34;;;13.30;95.67
23118;BME280;11728;50.624;6.014;2022-11-15T19:58:21;96763.25;;;13.34;95.60
23118;BME280;11728;50.624;6.014;2022-11-15T20:03:42;96764.97;;;13.35;95.58
23118;BME280;11728;50.624;6.014;2022-11-15T20:09:03;96756.84;;;13.38;95.41
23118;BME280;11728;50.624;6.014;2022-11-15T20:14:24;96754.28;;;13.36;95.18
23118;BME280;11728;50.624;6.014;2022-11-15T20:19:44;96743.78;;;13.35;95.55
23118;BME280;11728;50.624;6.014;2022-11-15T20:25:05;96757.81;;;13.37;95.25
23118;BME280;11728;50.624;6.014;2022-11-15T20:30:26;96762.91;;;13.40;95.23
23118;BME280;11728;50.624;6.014;2022-11-15T20:35:48;96766.50;;;13.39;95.39
23118;BME280;11728;50.624;6.014;2022-11-15T20:41:12;96767.47;;;13.38;95.42
23118;BME280;11728;50.624;6.014;2022-11-15T20:46:33;96754.22;;;13.38;95.39
23118;BME280;11728;50.624;6.014;2022-11-15T20:51:54;96748.91;;;13.38;95.57
23118;BME280;11728;50.624;6.014;2022-11-15T20:57:15;96749.06;;;13.35;95.66
23118;BME280;11728;50.624;6.014;2022-11-15T21:02:36;96731.44;;;13.34;96.19
23118;BME280;11728;50.624;6.014;2022-11-15T21:07:58;96730.50;;;13.35;96.20
23118;BME280;11728;50.624;6.014;2022-11-15T21:13:19;96726.16;;;13.34;96.22
23118;BME280;11728;50.624;6.014;2022-11-15T21:18:39;96725.22;;;13.35;96.60
23118;BME280;11728;50.624;6.014;2022-11-15T21:24:05;96727.75;;;13.36;96.39
23118;BME280;11728;50.624;6.014;2022-11-15T21:29:26;96711.94;;;13.35;96.45
23118;BME280;11728;50.624;6.014;2022-11-15T21:34:48;96709.19;;;13.36;96.02
23118;BME280;11728;50.624;6.014;2022-11-15T21:40:09;96715.38;;;13.37;96.25
23118;BME280;11728;50.624;6.014;2022-11-15T21:45:30;96700.41;;;13.36;96.20
23118;BME280;11728;50.624;6.014;2022-11-15T21:50:59;96694.34;;;13.34;96.35
23118;BME280;11728;50.624;6.014;2022-11-15T21:56:20;96685.44;;;13.35;96.39
23118;BME280;11728;50.624;6.014;2022-11-15T22:01:41;96681.84;;;13.36;96.41
23118;BME280;11728;50.624;6.014;2022-11-15T22:07:20;96679.31;;;13.34;96.22
23118;BME280;11728;50.624;6.014;2022-11-15T22:12:41;96664.41;;;13.32;96.37
23118;BME280;11728;50.624;6.014;2022-11-15T22:18:02;96661.19;;;13.27;97.29
23118;BME280;11728;50.624;6.014;2022-11-15T22:23:24;96648.28;;;13.21;97.83
23118;BME280;11728;50.624;6.014;2022-11-15T22:28:45;96647.53;;;13.19;98.19
23118;BME280;11728;50.624;6.014;2022-11-15T22:34:06;96645.81;;;13.18;98.34
23118;BME280;11728;50.624;6.014;2022-11-15T22:39:27;96638.72;;;13.18;98.64
23118;BME280;11728;50.624;6.014;2022-11-15T22:44:48;96632.50;;;13.19;98.60
23118;BME280;11728;50.624;6.014;2022-11-15T22:50:09;96638.53;;;13.21;98.39
23118;BME280;11728;50.624;6.014;2022-11-15T22:55:29;96639.41;;;13.22;98.45
23118;BME280;11728;50.624;6.014;2022-11-15T23:00:53;96633.16;;;13.23;98.82
23118;BME280;11728;50.624;6.014;2022-11-15T23:06:14;96632.03;;;13.27;98.58
23118;BME280;11728;50.624;6.014;2022-11-15T23:11:36;96625.78;;;13.28;98.69
23118;BME280;11728;50.624;6.014;2022-11-15T23:17:15;96625.00;;;13.26;99.05
23118;BME280;11728;50.624;6.014;2022-11-15T23:22:36;96619.97;;;13.21;99.04
23118;BME280;11728;50.624;6.014;2022-11-15T23:28:09;96616.75;;;13.16;99.77
23118;BME280;11728;50.624;6.014;2022-11-15T23:33:32;96623.00;;;13.15;100.00
23118;BME280;11728;50.624;6.014;2022-11-15T23:39:12;96620.25;;;13.17;100.00
23118;BME280;11728;50.624;6.014;2022-11-15T23:44:33;96615.81;;;13.17;100.00
23118;BME280;11728;50.624;6.014;2022-11-15T23:49:54;96623.09;;;13.14;100.00
23118;BME280;11728;50.624;6.014;2022-11-15T23:55:15;96628.47;;;13.12;100.00
